sensor_id;sensor_type;location;lat;lon;timestamp;P1;durP1;ratioP1;P2;durP2;ratioP2
8622;SDS011;4349;47.552;8.904;2022-09-09T00:01:33;2.03;;;1.93;;
8622;SDS011;4349;47.552;8.904;2022-09-09T00:04:05;2.50;;;2.30;;
8622;SDS011;4349;47.552;8.904;2022-09-09T00:06:43;4.30;;;2.30;;
8622;SDS011;4349;47.552;8.904;2022-09-09T00:09:12;2.60;;;2.40;;
8622;SDS011;4349;47.552;8.904;2022-09-09T00:11:41;2.20;;;2.10;;
8622;SDS011;4349;47.552;8.904;2022-09-09T00:14:12;2.90;;;2.70;;
8622;SDS011;4349;47.552;8.904;2022-09-09T00:16:40;3.17;;;2.87;;
8622;SDS011;4349;47.552;8.904;2022-09-09T00:19:12;2.80;;;2.60;;
8622;SDS011;4349;47.552;8.904;2022-09-09T00:21:46;2.73;;;2.60;;
8622;SDS011;4349;47.552;8.904;2022-09-09T00:24:22;3.20;;;2.90;;
8622;SDS011;4349;47.552;8.904;2022-09-09T00:26:52;3.13;;;2.93;;
8622;SDS011;4349;47.552;8.904;2022-09-09T00:29:25;3.10;;;2.90;;
8622;SDS011;4349;47.552;8.904;2022-09-09T00:31:56;2.50;;;2.40;;
8622;SDS011;4349;47.552;8.904;2022-09-09T00:34:25;2.77;;;2.67;;
8622;SDS011;4349;47.552;8.904;2022-09-09T00:36:55;3.33;;;2.80;;
8622;SDS011;4349;47.552;8.904;2022-09-09T00:39:25;3.10;;;2.90;;
8622;SDS011;4349;47.552;8.904;2022-09-09T00:41:57;2.67;;;2.57;;
8622;SDS011;4349;47.552;8.904;2022-09-09T00:44:30;2.43;;;2.23;;
8622;SDS011;4349;47.552;8.904;2022-09-09T00:47:04;4.67;;;2.93;;
8622;SDS011;4349;47.552;8.904;2022-09-09T00:49:39;2.43;;;2.33;;
8622;SDS011;4349;47.552;8.904;2022-09-09T00:52:20;3.23;;;2.40;;
8622;SDS011;4349;47.552;8.904;2022-09-09T00:54:51;2.87;;;2.67;;
8622;SDS011;4349;47.552;8.904;2022-09-09T00:57:25;2.27;;;2.13;;
8622;SDS011;4349;47.552;8.904;2022-09-09T01:00:16;2.60;;;2.40;;
8622;SDS011;4349;47.552;8.904;2022-09-09T01:02:47;2.67;;;2.47;;
8622;SDS011;4349;47.552;8.904;2022-09-09T01:05:18;4.77;;;2.37;;
8622;SDS011;4349;47.552;8.904;2022-09-09T01:07:49;2.40;;;2.30;;
8622;SDS011;4349;47.552;8.904;2022-09-09T01:10:25;2.57;;;2.27;;
8622;SDS011;4349;47.552;8.904;2022-09-09T01:12:53;2.53;;;2.30;;
8622;SDS011;4349;47.552;8.904;2022-09-09T01:15:24;2.30;;;2.20;;
8622;SDS011;4349;47.552;8.904;2022-09-09T01:17:56;2.23;;;2.13;;
8622;SDS011;4349;47.552;8.904;2022-09-09T01:20:26;4.67;;;2.33;;
8622;SDS011;4349;47.552;8.904;2022-09-09T01:23:03;4.10;;;2.47;;
8622;SDS011;4349;47.552;8.904;2022-09-09T01:28:25;2.67;;;2.47;;
8622;SDS011;4349;47.552;8.904;2022-09-09T01:31:00;2.90;;;2.70;;
8622;SDS011;4349;47.552;8.904;2022-09-09T01:33:34;2.50;;;2.40;;
8622;SDS011;4349;47.552;8.904;2022-09-09T01:36:02;3.30;;;2.77;;
8622;SDS011;4349;47.552;8.904;2022-09-09T01:38:36;2.50;;;2.40;;
8622;SDS011;4349;47.552;8.904;2022-09-09T01:41:04;2.63;;;2.43;;
8622;SDS011;4349;47.552;8.904;2022-09-09T01:43:48;2.33;;;2.23;;
8622;SDS011;4349;47.552;8.904;2022-09-09T01:46:17;2.83;;;2.47;;
8622;SDS011;4349;47.552;8.904;2022-09-09T01:48:45;2.67;;;2.50;;
8622;SDS011;4349;47.552;8.904;2022-09-09T01:51:14;3.03;;;2.50;;
8622;SDS011;4349;47.552;8.904;2022-09-09T01:53:42;3.03;;;2.30;;
8622;SDS011;4349;47.552;8.904;2022-09-09T01:56:14;2.80;;;2.70;;
8622;SDS011;4349;47.552;8.904;2022-09-09T01:58:57;2.50;;;2.40;;
8622;SDS011;4349;47.552;8.904;2022-09-09T02:01:32;3.53;;;2.30;;
8622;SDS011;4349;47.552;8.904;2022-09-09T02:04:03;3.27;;;2.80;;
8622;SDS011;4349;47.552;8.904;2022-09-09T02:06:35;2.60;;;2.50;;
8622;SDS011;4349;47.552;8.904;2022-09-09T02:09:17;2.40;;;2.30;;
8622;SDS011;4349;47.552;8.904;2022-09-09T02:11:48;2.77;;;2.60;;
8622;SDS011;4349;47.552;8.904;2022-09-09T02:14:27;2.40;;;2.30;;
8622;SDS011;4349;47.552;8.904;2022-09-09T02:16:56;2.90;;;2.40;;
8622;SDS011;4349;47.552;8.904;2022-09-09T02:19:36;2.50;;;2.40;;
8622;SDS011;4349;47.552;8.904;2022-09-09T02:22:18;2.37;;;2.23;;
8622;SDS011;4349;47.552;8.904;2022-09-09T02:24:47;2.57;;;2.37;;
8622;SDS011;4349;47.552;8.904;2022-09-09T02:27:20;2.50;;;2.40;;
8622;SDS011;4349;47.552;8.904;2022-09-09T02:29:51;2.60;;;2.50;;
8622;SDS011;4349;47.552;8.904;2022-09-09T02:32:32;2.17;;;2.00;;
8622;SDS011;4349;47.552;8.904;2022-09-09T02:35:05;2.80;;;2.60;;
8622;SDS011;4349;47.552;8.904;2022-09-09T02:37:37;2.83;;;2.40;;
8622;SDS011;4349;47.552;8.904;2022-09-09T02:40:06;2.30;;;2.10;;
8622;SDS011;4349;47.552;8.904;2022-09-09T02:42:41;2.53;;;2.43;;
8622;SDS011;4349;47.552;8.904;2022-09-09T02:45:11;2.33;;;2.10;;
8622;SDS011;4349;47.552;8.904;2022-09-09T02:47:41;2.47;;;2.30;;
8622;SDS011;4349;47.552;8.904;2022-09-09T02:50:14;2.97;;;2.87;;
8622;SDS011;4349;47.552;8.904;2022-09-09T02:52:46;2.20;;;2.10;;
8622;SDS011;4349;47.552;8.904;2022-09-09T02:55:16;2.33;;;2.23;;
8622;SDS011;4349;47.552;8.904;2022-09-09T02:57:49;2.53;;;2.40;;
8622;SDS011;4349;47.552;8.904;2022-09-09T03:00:23;2.60;;;2.40;;
8622;SDS011;4349;47.552;8.904;2022-09-09T03:02:54;2.40;;;2.20;;
8622;SDS011;4349;47.552;8.904;2022-09-09T03:05:22;2.23;;;2.13;;
8622;SDS011;4349;47.552;8.904;2022-09-09T03:07:50;2.20;;;2.00;;
8622;SDS011;4349;47.552;8.904;2022-09-09T03:10:19;2.13;;;2.03;;
8622;SDS011;4349;47.552;8.904;2022-09-09T03:12:46;2.50;;;2.30;;
8622;SDS011;4349;47.552;8.904;2022-09-09T03:15:15;3.03;;;2.07;;
8622;SDS011;4349;47.552;8.904;2022-09-09T03:17:44;2.37;;;2.20;;
8622;SDS011;4349;47.552;8.904;2022-09-09T03:20:12;2.20;;;2.10;;
8622;SDS011;4349;47.552;8.904;2022-09-09T03:22:39;2.10;;;2.00;;
8622;SDS011;4349;47.552;8.904;2022-09-09T03:25:07;2.10;;;2.10;;
8622;SDS011;4349;47.552;8.904;2022-09-09T03:27:36;2.13;;;2.03;;
8622;SDS011;4349;47.552;8.904;2022-09-09T03:30:04;2.23;;;2.00;;
8622;SDS011;4349;47.552;8.904;2022-09-09T03:32:32;2.23;;;2.10;;
8622;SDS011;4349;47.552;8.904;2022-09-09T03:35:01;2.50;;;1.80;;
8622;SDS011;4349;47.552;8.904;2022-09-09T03:37:29;2.90;;;1.80;;
8622;SDS011;4349;47.552;8.904;2022-09-09T03:39:57;1.70;;;1.60;;
8622;SDS011;4349;47.552;8.904;2022-09-09T03:42:26;1.80;;;1.70;;
8622;SDS011;4349;47.552;8.904;2022-09-09T03:44:56;2.50;;;1.90;;
8622;SDS011;4349;47.552;8.904;2022-09-09T03:47:24;3.37;;;1.80;;
8622;SDS011;4349;47.552;8.904;2022-09-09T03:49:58;3.70;;;1.80;;
8622;SDS011;4349;47.552;8.904;2022-09-09T03:52:27;1.70;;;1.60;;
8622;SDS011;4349;47.552;8.904;2022-09-09T03:54:55;5.77;;;2.50;;
8622;SDS011;4349;47.552;8.904;2022-09-09T03:57:23;2.63;;;1.67;;
8622;SDS011;4349;47.552;8.904;2022-09-09T03:59:51;1.50;;;1.50;;
8622;SDS011;4349;47.552;8.904;2022-09-09T04:02:19;1.70;;;1.60;;
8622;SDS011;4349;47.552;8.904;2022-09-09T04:04:47;1.90;;;1.80;;
8622;SDS011;4349;47.552;8.904;2022-09-09T04:07:15;2.13;;;1.50;;
8622;SDS011;4349;47.552;8.904;2022-09-09T04:09:45;2.20;;;1.63;;
8622;SDS011;4349;47.552;8.904;2022-09-09T04:12:13;3.20;;;1.53;;
8622;SDS011;4349;47.552;8.904;2022-09-09T04:14:42;1.27;;;1.27;;
8622;SDS011;4349;47.552;8.904;2022-09-09T04:17:10;1.47;;;1.37;;
8622;SDS011;4349;47.552;8.904;2022-09-09T04:19:38;1.40;;;1.30;;
8622;SDS011;4349;47.552;8.904;2022-09-09T04:22:06;1.57;;;1.47;;
8622;SDS011;4349;47.552;8.904;2022-09-09T04:24:34;1.33;;;1.23;;
8622;SDS011;4349;47.552;8.904;2022-09-09T04:27:03;1.60;;;1.37;;
8622;SDS011;4349;47.552;8.904;2022-09-09T04:29:33;3.07;;;1.70;;
8622;SDS011;4349;47.552;8.904;2022-09-09T04:32:01;1.33;;;1.23;;
8622;SDS011;4349;47.552;8.904;2022-09-09T04:34:29;3.30;;;1.37;;
8622;SDS011;4349;47.552;8.904;2022-09-09T04:36:57;1.63;;;1.30;;
8622;SDS011;4349;47.552;8.904;2022-09-09T04:39:27;1.50;;;1.40;;
8622;SDS011;4349;47.552;8.904;2022-09-09T04:41:57;1.20;;;1.20;;
8622;SDS011;4349;47.552;8.904;2022-09-09T04:44:26;1.23;;;1.23;;
8622;SDS011;4349;47.552;8.904;2022-09-09T04:46:54;1.50;;;1.40;;
8622;SDS011;4349;47.552;8.904;2022-09-09T04:49:21;1.40;;;1.40;;
8622;SDS011;4349;47.552;8.904;2022-09-09T04:51:49;1.50;;;1.37;;
8622;SDS011;4349;47.552;8.904;2022-09-09T04:54:17;2.83;;;1.57;;
8622;SDS011;4349;47.552;8.904;2022-09-09T04:56:45;1.40;;;1.40;;
8622;SDS011;4349;47.552;8.904;2022-09-09T04:59:13;1.83;;;1.40;;
8622;SDS011;4349;47.552;8.904;2022-09-09T05:01:48;1.60;;;1.50;;
8622;SDS011;4349;47.552;8.904;2022-09-09T05:04:17;1.40;;;1.30;;
8622;SDS011;4349;47.552;8.904;2022-09-09T05:06:45;1.40;;;1.40;;
8622;SDS011;4349;47.552;8.904;2022-09-09T05:09:13;1.53;;;1.43;;
8622;SDS011;4349;47.552;8.904;2022-09-09T05:11:40;2.53;;;1.30;;
8622;SDS011;4349;47.552;8.904;2022-09-09T05:14:15;1.40;;;1.30;;
8622;SDS011;4349;47.552;8.904;2022-09-09T05:16:44;1.30;;;1.30;;
8622;SDS011;4349;47.552;8.904;2022-09-09T05:19:13;1.50;;;1.40;;
8622;SDS011;4349;47.552;8.904;2022-09-09T05:21:46;1.43;;;1.33;;
8622;SDS011;4349;47.552;8.904;2022-09-09T05:24:17;1.70;;;1.60;;
8622;SDS011;4349;47.552;8.904;2022-09-09T05:26:46;1.87;;;1.73;;
8622;SDS011;4349;47.552;8.904;2022-09-09T05:29:14;1.67;;;1.57;;
8622;SDS011;4349;47.552;8.904;2022-09-09T05:31:45;1.90;;;1.33;;
8622;SDS011;4349;47.552;8.904;2022-09-09T05:34:17;2.17;;;1.67;;
8622;SDS011;4349;47.552;8.904;2022-09-09T05:36:45;2.63;;;1.90;;
8622;SDS011;4349;47.552;8.904;2022-09-09T05:39:14;1.50;;;1.50;;
8622;SDS011;4349;47.552;8.904;2022-09-09T05:41:42;1.77;;;1.70;;
8622;SDS011;4349;47.552;8.904;2022-09-09T05:44:10;1.83;;;1.50;;
8622;SDS011;4349;47.552;8.904;2022-09-09T05:46:38;1.90;;;1.80;;
8622;SDS011;4349;47.552;8.904;2022-09-09T05:49:06;2.83;;;1.63;;
8622;SDS011;4349;47.552;8.904;2022-09-09T05:51:36;1.80;;;1.70;;
8622;SDS011;4349;47.552;8.904;2022-09-09T05:54:08;1.53;;;1.47;;
8622;SDS011;4349;47.552;8.904;2022-09-09T05:56:40;2.10;;;1.90;;
8622;SDS011;4349;47.552;8.904;2022-09-09T05:59:08;2.50;;;1.60;;
8622;SDS011;4349;47.552;8.904;2022-09-09T06:01:37;2.57;;;1.80;;
8622;SDS011;4349;47.552;8.904;2022-09-09T06:04:09;2.33;;;1.60;;
8622;SDS011;4349;47.552;8.904;2022-09-09T06:06:39;2.23;;;1.67;;
8622;SDS011;4349;47.552;8.904;2022-09-09T06:09:12;1.80;;;1.70;;
8622;SDS011;4349;47.552;8.904;2022-09-09T06:11:42;1.57;;;1.53;;
8622;SDS011;4349;47.552;8.904;2022-09-09T06:14:11;2.87;;;2.67;;
8622;SDS011;4349;47.552;8.904;2022-09-09T06:16:39;1.77;;;1.60;;
8622;SDS011;4349;47.552;8.904;2022-09-09T06:19:16;3.73;;;1.70;;
8622;SDS011;4349;47.552;8.904;2022-09-09T06:21:44;2.87;;;1.80;;
8622;SDS011;4349;47.552;8.904;2022-09-09T06:24:14;3.30;;;1.50;;
8622;SDS011;4349;47.552;8.904;2022-09-09T06:26:43;2.07;;;1.43;;
8622;SDS011;4349;47.552;8.904;2022-09-09T06:29:16;1.53;;;1.50;;
8622;SDS011;4349;47.552;8.904;2022-09-09T06:31:44;1.40;;;1.30;;
8622;SDS011;4349;47.552;8.904;2022-09-09T06:34:14;1.40;;;1.30;;
8622;SDS011;4349;47.552;8.904;2022-09-09T06:36:48;1.80;;;1.23;;
8622;SDS011;4349;47.552;8.904;2022-09-09T06:39:15;1.30;;;1.30;;
8622;SDS011;4349;47.552;8.904;2022-09-09T06:41:44;1.87;;;1.40;;
8622;SDS011;4349;47.552;8.904;2022-09-09T06:44:37;1.40;;;1.40;;
8622;SDS011;4349;47.552;8.904;2022-09-09T06:47:08;1.50;;;1.40;;
8622;SDS011;4349;47.552;8.904;2022-09-09T06:49:38;1.37;;;1.37;;
8622;SDS011;4349;47.552;8.904;2022-09-09T06:52:10;1.37;;;1.27;;
8622;SDS011;4349;47.552;8.904;2022-09-09T06:54:38;1.50;;;1.40;;
8622;SDS011;4349;47.552;8.904;2022-09-09T06:57:05;2.10;;;1.37;;
8622;SDS011;4349;47.552;8.904;2022-09-09T06:59:55;1.40;;;1.20;;
8622;SDS011;4349;47.552;8.904;2022-09-09T07:02:23;1.53;;;1.30;;
8622;SDS011;4349;47.552;8.904;2022-09-09T07:04:52;2.00;;;1.40;;
8622;SDS011;4349;47.552;8.904;2022-09-09T07:07:21;3.10;;;1.90;;
8622;SDS011;4349;47.552;8.904;2022-09-09T07:09:49;1.70;;;1.60;;
8622;SDS011;4349;47.552;8.904;2022-09-09T07:12:17;1.60;;;1.60;;
8622;SDS011;4349;47.552;8.904;2022-09-09T07:14:52;1.60;;;1.50;;
8622;SDS011;4349;47.552;8.904;2022-09-09T07:17:20;1.60;;;1.60;;
8622;SDS011;4349;47.552;8.904;2022-09-09T07:19:47;1.70;;;1.60;;
8622;SDS011;4349;47.552;8.904;2022-09-09T07:22:16;1.40;;;1.30;;
8622;SDS011;4349;47.552;8.904;2022-09-09T07:24:45;1.33;;;1.27;;
8622;SDS011;4349;47.552;8.904;2022-09-09T07:27:14;2.00;;;1.90;;
8622;SDS011;4349;47.552;8.904;2022-09-09T07:29:42;3.90;;;1.37;;
8622;SDS011;4349;47.552;8.904;2022-09-09T07:32:09;1.13;;;1.10;;
8622;SDS011;4349;47.552;8.904;2022-09-09T07:34:37;1.23;;;1.10;;
8622;SDS011;4349;47.552;8.904;2022-09-09T07:37:05;1.13;;;1.13;;
8622;SDS011;4349;47.552;8.904;2022-09-09T07:39:34;1.87;;;1.27;;
8622;SDS011;4349;47.552;8.904;2022-09-09T07:42:03;2.93;;;1.50;;
8622;SDS011;4349;47.552;8.904;2022-09-09T07:44:31;1.90;;;1.70;;
8622;SDS011;4349;47.552;8.904;2022-09-09T07:47:05;2.50;;;2.40;;
8622;SDS011;4349;47.552;8.904;2022-09-09T07:49:37;2.60;;;2.40;;
8622;SDS011;4349;47.552;8.904;2022-09-09T07:52:06;1.80;;;1.80;;
8622;SDS011;4349;47.552;8.904;2022-09-09T07:54:36;2.37;;;2.23;;
8622;SDS011;4349;47.552;8.904;2022-09-09T07:57:07;2.33;;;2.20;;
8622;SDS011;4349;47.552;8.904;2022-09-09T07:59:36;2.00;;;1.70;;
8622;SDS011;4349;47.552;8.904;2022-09-09T08:02:04;3.17;;;2.20;;
8622;SDS011;4349;47.552;8.904;2022-09-09T08:04:34;1.93;;;1.80;;
8622;SDS011;4349;47.552;8.904;2022-09-09T08:07:02;4.50;;;1.83;;
8622;SDS011;4349;47.552;8.904;2022-09-09T08:09:37;1.60;;;1.60;;
8622;SDS011;4349;47.552;8.904;2022-09-09T08:12:22;1.83;;;1.70;;
8622;SDS011;4349;47.552;8.904;2022-09-09T08:14:50;2.50;;;2.30;;
8622;SDS011;4349;47.552;8.904;2022-09-09T08:17:23;1.90;;;1.80;;
8622;SDS011;4349;47.552;8.904;2022-09-09T08:19:51;1.70;;;1.60;;
8622;SDS011;4349;47.552;8.904;2022-09-09T08:22:23;1.80;;;1.70;;
8622;SDS011;4349;47.552;8.904;2022-09-09T08:24:53;2.20;;;1.73;;
8622;SDS011;4349;47.552;8.904;2022-09-09T08:27:23;1.77;;;1.60;;
8622;SDS011;4349;47.552;8.904;2022-09-09T08:29:52;2.30;;;1.90;;
8622;SDS011;4349;47.552;8.904;2022-09-09T08:32:19;4.43;;;1.40;;
8622;SDS011;4349;47.552;8.904;2022-09-09T08:34:48;3.17;;;1.60;;
8622;SDS011;4349;47.552;8.904;2022-09-09T08:37:21;2.17;;;1.80;;
8622;SDS011;4349;47.552;8.904;2022-09-09T08:39:49;2.27;;;1.37;;
8622;SDS011;4349;47.552;8.904;2022-09-09T08:42:26;1.57;;;1.43;;
8622;SDS011;4349;47.552;8.904;2022-09-09T08:47:41;3.73;;;1.33;;
8622;SDS011;4349;47.552;8.904;2022-09-09T08:50:16;3.13;;;1.30;;
8622;SDS011;4349;47.552;8.904;2022-09-09T08:52:48;1.30;;;1.20;;
8622;SDS011;4349;47.552;8.904;2022-09-09T08:55:20;2.43;;;1.30;;
8622;SDS011;4349;47.552;8.904;2022-09-09T08:57:52;1.80;;;1.50;;
8622;SDS011;4349;47.552;8.904;2022-09-09T09:00:23;1.57;;;1.50;;
8622;SDS011;4349;47.552;8.904;2022-09-09T09:02:56;1.87;;;1.77;;
8622;SDS011;4349;47.552;8.904;2022-09-09T09:05:32;2.37;;;1.30;;
8622;SDS011;4349;47.552;8.904;2022-09-09T09:08:05;2.70;;;2.20;;
8622;SDS011;4349;47.552;8.904;2022-09-09T09:10:38;2.33;;;1.30;;
8622;SDS011;4349;47.552;8.904;2022-09-09T09:13:14;3.23;;;1.40;;
8622;SDS011;4349;47.552;8.904;2022-09-09T09:15:44;3.53;;;1.77;;
8622;SDS011;4349;47.552;8.904;2022-09-09T09:18:19;2.47;;;1.40;;
8622;SDS011;4349;47.552;8.904;2022-09-09T09:20:50;3.07;;;1.40;;
8622;SDS011;4349;47.552;8.904;2022-09-09T09:23:20;1.03;;;1.03;;
8622;SDS011;4349;47.552;8.904;2022-09-09T09:25:49;3.23;;;1.50;;
8622;SDS011;4349;47.552;8.904;2022-09-09T09:28:20;4.13;;;1.63;;
8622;SDS011;4349;47.552;8.904;2022-09-09T09:30:55;1.13;;;1.13;;
8622;SDS011;4349;47.552;8.904;2022-09-09T09:33:26;1.20;;;1.20;;
8622;SDS011;4349;47.552;8.904;2022-09-09T09:35:55;1.50;;;1.13;;
8622;SDS011;4349;47.552;8.904;2022-09-09T09:38:24;1.43;;;1.43;;
8622;SDS011;4349;47.552;8.904;2022-09-09T09:41:12;2.00;;;1.40;;
8622;SDS011;4349;47.552;8.904;2022-09-09T09:43:42;2.43;;;1.30;;
8622;SDS011;4349;47.552;8.904;2022-09-09T09:46:19;1.57;;;1.47;;
8622;SDS011;4349;47.552;8.904;2022-09-09T09:48:55;1.50;;;1.27;;
8622;SDS011;4349;47.552;8.904;2022-09-09T09:51:23;3.30;;;1.83;;
8622;SDS011;4349;47.552;8.904;2022-09-09T09:53:53;2.30;;;1.30;;
8622;SDS011;4349;47.552;8.904;2022-09-09T09:56:25;1.97;;;1.40;;
8622;SDS011;4349;47.552;8.904;2022-09-09T09:58:55;3.73;;;1.47;;
8622;SDS011;4349;47.552;8.904;2022-09-09T10:01:31;1.30;;;1.20;;
8622;SDS011;4349;47.552;8.904;2022-09-09T10:04:13;1.37;;;1.10;;
8622;SDS011;4349;47.552;8.904;2022-09-09T10:06:42;3.53;;;1.50;;
8622;SDS011;4349;47.552;8.904;2022-09-09T10:09:20;2.00;;;1.47;;
8622;SDS011;4349;47.552;8.904;2022-09-09T10:11:50;1.87;;;1.20;;
8622;SDS011;4349;47.552;8.904;2022-09-09T10:14:21;2.33;;;1.50;;
8622;SDS011;4349;47.552;8.904;2022-09-09T10:16:53;1.47;;;1.17;;
8622;SDS011;4349;47.552;8.904;2022-09-09T10:19:29;2.07;;;1.27;;
8622;SDS011;4349;47.552;8.904;2022-09-09T10:22:04;1.13;;;1.13;;
8622;SDS011;4349;47.552;8.904;2022-09-09T10:24:47;2.80;;;1.10;;
8622;SDS011;4349;47.552;8.904;2022-09-09T10:27:19;2.33;;;1.10;;
8622;SDS011;4349;47.552;8.904;2022-09-09T10:29:54;2.93;;;1.20;;
8622;SDS011;4349;47.552;8.904;2022-09-09T10:32:38;1.30;;;1.00;;
8622;SDS011;4349;47.552;8.904;2022-09-09T10:35:12;1.53;;;1.10;;
8622;SDS011;4349;47.552;8.904;2022-09-09T10:40:30;1.90;;;1.13;;
8622;SDS011;4349;47.552;8.904;2022-09-09T10:43:02;2.20;;;1.13;;
8622;SDS011;4349;47.552;8.904;2022-09-09T10:45:34;1.27;;;1.20;;
8622;SDS011;4349;47.552;8.904;2022-09-09T10:48:08;1.80;;;1.07;;
8622;SDS011;4349;47.552;8.904;2022-09-09T10:50:45;1.33;;;1.10;;
8622;SDS011;4349;47.552;8.904;2022-09-09T10:53:36;2.57;;;1.30;;
8622;SDS011;4349;47.552;8.904;2022-09-09T10:56:06;2.20;;;1.27;;
8622;SDS011;4349;47.552;8.904;2022-09-09T10:58:36;2.97;;;1.30;;
8622;SDS011;4349;47.552;8.904;2022-09-09T11:01:08;1.47;;;1.37;;
8622;SDS011;4349;47.552;8.904;2022-09-09T11:03:37;1.47;;;1.37;;
8622;SDS011;4349;47.552;8.904;2022-09-09T11:06:09;1.27;;;1.20;;
8622;SDS011;4349;47.552;8.904;2022-09-09T11:08:40;1.87;;;1.37;;
8622;SDS011;4349;47.552;8.904;2022-09-09T11:11:09;1.10;;;1.10;;
8622;SDS011;4349;47.552;8.904;2022-09-09T11:13:39;2.40;;;1.07;;
8622;SDS011;4349;47.552;8.904;2022-09-09T11:16:15;2.23;;;1.20;;
8622;SDS011;4349;47.552;8.904;2022-09-09T11:18:44;1.57;;;1.17;;
8622;SDS011;4349;47.552;8.904;2022-09-09T11:21:15;1.00;;;1.00;;
8622;SDS011;4349;47.552;8.904;2022-09-09T11:23:45;1.50;;;1.00;;
8622;SDS011;4349;47.552;8.904;2022-09-09T11:26:16;1.00;;;1.00;;
8622;SDS011;4349;47.552;8.904;2022-09-09T11:28:49;1.97;;;1.20;;
8622;SDS011;4349;47.552;8.904;2022-09-09T11:34:08;0.90;;;0.90;;
8622;SDS011;4349;47.552;8.904;2022-09-09T11:36:46;1.33;;;1.27;;
8622;SDS011;4349;47.552;8.904;2022-09-09T11:39:26;1.23;;;0.90;;
8622;SDS011;4349;47.552;8.904;2022-09-09T11:41:55;1.50;;;1.40;;
8622;SDS011;4349;47.552;8.904;2022-09-09T11:44:33;1.00;;;1.00;;
8622;SDS011;4349;47.552;8.904;2022-09-09T11:47:00;1.40;;;1.23;;
8622;SDS011;4349;47.552;8.904;2022-09-09T11:49:30;2.10;;;1.30;;
8622;SDS011;4349;47.552;8.904;2022-09-09T11:52:10;3.93;;;1.20;;
8622;SDS011;4349;47.552;8.904;2022-09-09T11:54:44;1.70;;;1.40;;
8622;SDS011;4349;47.552;8.904;2022-09-09T11:57:16;1.40;;;1.30;;
8622;SDS011;4349;47.552;8.904;2022-09-09T11:59:50;2.57;;;1.43;;
8622;SDS011;4349;47.552;8.904;2022-09-09T12:02:19;1.83;;;1.30;;
8622;SDS011;4349;47.552;8.904;2022-09-09T12:04:54;1.50;;;1.40;;
8622;SDS011;4349;47.552;8.904;2022-09-09T12:07:25;1.20;;;1.10;;
8622;SDS011;4349;47.552;8.904;2022-09-09T12:09:55;3.77;;;1.50;;
8622;SDS011;4349;47.552;8.904;2022-09-09T12:12:28;1.40;;;1.30;;
8622;SDS011;4349;47.552;8.904;2022-09-09T12:14:57;2.17;;;1.43;;
8622;SDS011;4349;47.552;8.904;2022-09-09T12:17:26;1.53;;;1.20;;
8622;SDS011;4349;47.552;8.904;2022-09-09T12:20:02;1.27;;;1.27;;
8622;SDS011;4349;47.552;8.904;2022-09-09T12:22:35;1.30;;;1.20;;
8622;SDS011;4349;47.552;8.904;2022-09-09T12:25:08;1.43;;;1.43;;
8622;SDS011;4349;47.552;8.904;2022-09-09T12:27:40;1.83;;;1.50;;
8622;SDS011;4349;47.552;8.904;2022-09-09T12:30:12;2.13;;;1.40;;
8622;SDS011;4349;47.552;8.904;2022-09-09T12:32:41;1.30;;;1.20;;
8622;SDS011;4349;47.552;8.904;2022-09-09T12:35:13;1.60;;;1.50;;
8622;SDS011;4349;47.552;8.904;2022-09-09T12:37:45;1.20;;;1.20;;
8622;SDS011;4349;47.552;8.904;2022-09-09T12:40:19;2.87;;;1.60;;
8622;SDS011;4349;47.552;8.904;2022-09-09T12:42:47;3.10;;;1.97;;
8622;SDS011;4349;47.552;8.904;2022-09-09T12:45:15;2.23;;;1.27;;
8622;SDS011;4349;47.552;8.904;2022-09-09T12:47:44;2.17;;;1.30;;
8622;SDS011;4349;47.552;8.904;2022-09-09T12:50:18;2.27;;;1.20;;
8622;SDS011;4349;47.552;8.904;2022-09-09T12:52:47;3.33;;;1.53;;
8622;SDS011;4349;47.552;8.904;2022-09-09T12:55:16;1.37;;;1.20;;
8622;SDS011;4349;47.552;8.904;2022-09-09T12:57:45;1.67;;;1.33;;
8622;SDS011;4349;47.552;8.904;2022-09-09T13:00:14;2.07;;;1.40;;
8622;SDS011;4349;47.552;8.904;2022-09-09T13:02:46;1.40;;;1.30;;
8622;SDS011;4349;47.552;8.904;2022-09-09T13:05:15;2.27;;;1.60;;
8622;SDS011;4349;47.552;8.904;2022-09-09T13:07:44;3.47;;;1.70;;
8622;SDS011;4349;47.552;8.904;2022-09-09T13:10:12;2.07;;;1.30;;
8622;SDS011;4349;47.552;8.904;2022-09-09T13:12:50;1.43;;;1.30;;
8622;SDS011;4349;47.552;8.904;2022-09-09T13:15:19;2.30;;;1.40;;
8622;SDS011;4349;47.552;8.904;2022-09-09T13:17:49;1.60;;;1.50;;
8622;SDS011;4349;47.552;8.904;2022-09-09T13:20:17;1.47;;;1.37;;
8622;SDS011;4349;47.552;8.904;2022-09-09T13:22:47;1.73;;;1.63;;
8622;SDS011;4349;47.552;8.904;2022-09-09T13:25:18;1.77;;;1.30;;
8622;SDS011;4349;47.552;8.904;2022-09-09T13:27:51;1.20;;;1.20;;
8622;SDS011;4349;47.552;8.904;2022-09-09T13:30:20;1.97;;;1.40;;
8622;SDS011;4349;47.552;8.904;2022-09-09T13:32:59;1.00;;;1.00;;
8622;SDS011;4349;47.552;8.904;2022-09-09T13:35:28;1.40;;;1.30;;
8622;SDS011;4349;47.552;8.904;2022-09-09T13:37:57;1.83;;;1.33;;
8622;SDS011;4349;47.552;8.904;2022-09-09T13:40:25;1.37;;;1.30;;
8622;SDS011;4349;47.552;8.904;2022-09-09T13:42:53;1.27;;;1.27;;
8622;SDS011;4349;47.552;8.904;2022-09-09T13:45:23;2.10;;;1.10;;
8622;SDS011;4349;47.552;8.904;2022-09-09T13:47:52;1.47;;;1.17;;
8622;SDS011;4349;47.552;8.904;2022-09-09T13:50:22;1.40;;;1.13;;
8622;SDS011;4349;47.552;8.904;2022-09-09T13:52:50;1.33;;;1.27;;
8622;SDS011;4349;47.552;8.904;2022-09-09T13:55:21;1.57;;;1.27;;
8622;SDS011;4349;47.552;8.904;2022-09-09T13:57:50;1.07;;;1.00;;
8622;SDS011;4349;47.552;8.904;2022-09-09T14:00:18;1.27;;;1.10;;
8622;SDS011;4349;47.552;8.904;2022-09-09T14:02:45;1.48;;;1.00;;
8622;SDS011;4349;47.552;8.904;2022-09-09T14:05:13;1.00;;;1.00;;
8622;SDS011;4349;47.552;8.904;2022-09-09T14:07:42;0.85;;;0.85;;
8622;SDS011;4349;47.552;8.904;2022-09-09T14:10:09;0.80;;;0.80;;
8622;SDS011;4349;47.552;8.904;2022-09-09T14:12:38;1.42;;;1.13;;
8622;SDS011;4349;47.552;8.904;2022-09-09T14:15:06;1.02;;;1.00;;
8622;SDS011;4349;47.552;8.904;2022-09-09T14:17:34;0.90;;;0.80;;
8622;SDS011;4349;47.552;8.904;2022-09-09T14:20:02;1.40;;;1.10;;
8622;SDS011;4349;47.552;8.904;2022-09-09T14:22:30;2.03;;;1.23;;
8622;SDS011;4349;47.552;8.904;2022-09-09T14:24:57;1.60;;;0.98;;
8622;SDS011;4349;47.552;8.904;2022-09-09T14:27:25;1.83;;;0.80;;
8622;SDS011;4349;47.552;8.904;2022-09-09T14:29:54;3.28;;;1.38;;
8622;SDS011;4349;47.552;8.904;2022-09-09T14:32:22;2.97;;;1.00;;
8622;SDS011;4349;47.552;8.904;2022-09-09T14:34:50;1.00;;;1.00;;
8622;SDS011;4349;47.552;8.904;2022-09-09T14:37:17;1.75;;;1.23;;
8622;SDS011;4349;47.552;8.904;2022-09-09T14:39:46;1.10;;;1.02;;
8622;SDS011;4349;47.552;8.904;2022-09-09T14:42:16;0.90;;;0.90;;
8622;SDS011;4349;47.552;8.904;2022-09-09T14:44:44;1.10;;;1.10;;
8622;SDS011;4349;47.552;8.904;2022-09-09T14:47:13;1.50;;;1.40;;
8622;SDS011;4349;47.552;8.904;2022-09-09T14:49:41;1.10;;;1.10;;
8622;SDS011;4349;47.552;8.904;2022-09-09T14:52:12;3.25;;;1.10;;
8622;SDS011;4349;47.552;8.904;2022-09-09T14:54:40;1.13;;;1.13;;
8622;SDS011;4349;47.552;8.904;2022-09-09T14:57:07;1.35;;;0.90;;
8622;SDS011;4349;47.552;8.904;2022-09-09T14:59:35;1.15;;;0.98;;
8622;SDS011;4349;47.552;8.904;2022-09-09T15:02:02;1.15;;;0.80;;
8622;SDS011;4349;47.552;8.904;2022-09-09T15:04:31;2.15;;;0.98;;
8622;SDS011;4349;47.552;8.904;2022-09-09T15:06:59;0.88;;;0.88;;
8622;SDS011;4349;47.552;8.904;2022-09-09T15:09:27;1.67;;;0.80;;
8622;SDS011;4349;47.552;8.904;2022-09-09T15:11:54;2.63;;;1.17;;
8622;SDS011;4349;47.552;8.904;2022-09-09T15:14:22;0.95;;;0.93;;
8622;SDS011;4349;47.552;8.904;2022-09-09T15:16:51;0.82;;;0.80;;
8622;SDS011;4349;47.552;8.904;2022-09-09T15:19:19;2.28;;;1.05;;
8622;SDS011;4349;47.552;8.904;2022-09-09T15:21:47;1.77;;;0.75;;
8622;SDS011;4349;47.552;8.904;2022-09-09T15:24:15;1.02;;;0.82;;
8622;SDS011;4349;47.552;8.904;2022-09-09T15:26:43;1.00;;;0.98;;
8622;SDS011;4349;47.552;8.904;2022-09-09T15:29:11;1.02;;;0.80;;
8622;SDS011;4349;47.552;8.904;2022-09-09T15:31:38;1.00;;;0.88;;
8622;SDS011;4349;47.552;8.904;2022-09-09T15:34:06;1.08;;;0.98;;
8622;SDS011;4349;47.552;8.904;2022-09-09T15:36:35;1.15;;;0.85;;
8622;SDS011;4349;47.552;8.904;2022-09-09T15:39:05;1.02;;;0.90;;
8622;SDS011;4349;47.552;8.904;2022-09-09T15:41:33;0.88;;;0.80;;
8622;SDS011;4349;47.552;8.904;2022-09-09T15:44:01;0.70;;;0.70;;
8622;SDS011;4349;47.552;8.904;2022-09-09T15:46:30;0.90;;;0.90;;
8622;SDS011;4349;47.552;8.904;2022-09-09T15:48:58;0.77;;;0.77;;